Data for 10/01/2010

Time Sea-Level Adjusted Pressure Absolute Pressure Temperature Relative Humidity Dew Point   
(mb) (inHg) (mb) (inHg) (C) (F) (%) (C) (F)
00:05 1024 30.24 853 25.19 15.8 60.4 52 6 42.8
00:10 1024 30.24 853 25.19 15.6 60.2 52 5.9 42.7
00:15 1024 30.24 853 25.19 15.5 60 53 6 42.8
00:20 1024 30.24 853 25.19 15.5 59.8 53 6 42.8
00:25 1024 30.24 853 25.19 15.4 59.7 53 6 42.7
00:30 1024 30.24 853 25.19 15.4 59.6 53 6 42.8
00:35 1024 30.24 853 25.19 15.2 59.4 54 6 42.9
00:40 1024 30.24 853 25.19 15.1 59.2 54 6 42.8
00:45 1024 30.24 853 25.19 15 59.1 55 6 42.9
00:50 1024 30.24 853 25.19 15 58.9 55 6 42.7
00:55 1024 30.24 853 25.19 15 58.9 55 6 42.7
01:00 1024 30.24 853 25.19 14.9 58.8 55 6 42.7
01:05 1024 30.24 853 25.19 14.8 58.7 55 5.9 42.6
01:10 1024 30.24 853 25.19 14.7 58.5 56 6 42.9
01:15 1024 30.24 853 25.19 14.6 58.2 56 6 42.7
01:20 1024 30.24 853 25.19 14.5 58 56 6 42.7
01:25 1024 30.24 853 25.19 14.4 57.9 56 5.9 42.6
01:30 1024 30.24 854 25.22 14.3 57.8 57 5.9 42.7
01:35 1024 30.24 854 25.22 14.3 57.7 57 5.9 42.6
01:40 1024 30.24 854 25.22 14.2 57.5 57 5.9 42.5
01:45 1024 30.24 854 25.22 14.1 57.3 57 5.8 42.5
01:50 1024 30.24 854 25.22 14 57.2 57 5.8 42.5
01:55 1025 30.27 854 25.22 14 57.1 58 5.8 42.4
02:00 1025 30.27 854 25.22 13.9 57 58 5.7 42.3
02:05 1025 30.27 854 25.22 13.9 56.9 58 5.8 42.4
02:10 1025 30.27 854 25.22 13.8 56.9 58 5.8 42.4
02:15 1025 30.27 854 25.22 13.7 56.7 59 5.8 42.5
02:20 1025 30.27 854 25.22 13.6 56.5 59 5.7 42.3
02:25 1025 30.27 854 25.22 13.6 56.4 59 5.7 42.3
02:30 1025 30.27 854 25.22 13.6 56.5 59 5.7 42.3
02:35 1025 30.27 854 25.22 13.6 56.5 58 5.6 42.2
02:40 1025 30.27 854 25.22 13.6 56.5 58 5.7 42.2
02:45 1025 30.27 854 25.22 13.6 56.4 59 5.7 42.3
02:50 1025 30.27 854 25.22 13.5 56.3 59 5.6 42.1
02:55 1025 30.27 854 25.22 13.5 56.3 59 5.6 42.1
03:00 1025 30.27 854 25.22 13.5 56.3 59 5.6 42.1
03:05 1025 30.27 854 25.22 13.5 56.2 59 5.6 42
03:10 1025 30.27 854 25.22 13.4 56.1 59 5.6 42.1
03:15 1025 30.27 854 25.22 13.4 56 59 5.5 41.9
03:20 1025 30.27 854 25.22 13.3 56 59 5.6 42
03:25 1025 30.27 854 25.22 13.3 55.9 59 5.5 42
03:30 1025 30.27 854 25.22 13.3 55.9 59 5.5 41.9
03:35 1025 30.27 854 25.22 13.2 55.7 59 5.5 41.9
03:40 1025 30.27 854 25.22 13.1 55.6 60 5.5 41.9
03:45 1025 30.27 854 25.22 13.2 55.7 59 5.4 41.8
03:50 1025 30.27 854 25.22 13.1 55.6 59 5.4 41.8
03:55 1025 30.27 854 25.22 13 55.5 60 5.5 41.9
04:00 1025 30.27 854 25.22 13 55.4 59 5.3 41.6
04:05 1025 30.27 854 25.22 13 55.4 59 5.3 41.6
04:10 1025 30.27 854 25.22 13.1 55.5 59 5.3 41.5
04:15 1025 30.27 854 25.22 13.1 55.5 59 5.3 41.5
04:20 1025 30.27 854 25.22 13.1 55.7 58 5.1 41.1
04:25 1025 30.27 854 25.22 13.2 55.7 58 5.2 41.3
04:30 1025 30.27 854 25.22 13.1 55.6 59 5.2 41.4
04:35 1025 30.27 854 25.22 13.1 55.5 58 5.1 41.2
04:40 1025 30.27 854 25.22 13 55.3 59 5.2 41.3
04:45 1025 30.27 854 25.22 12.9 55.2 59 5.1 41.2
04:50 1025 30.27 854 25.22 12.8 55.1 59 5.1 41.2
04:55 1025 30.27 855 25.25 12.7 54.9 60 5.2 41.3
05:00 1025 30.27 855 25.25 12.6 54.7 60 5.2 41.4
05:05 1025 30.27 855 25.25 12.3 54.1 62 5.2 41.4
05:10 1025 30.27 855 25.25 12.1 53.8 62 5 41
05:15 1025 30.27 855 25.25 12.3 54.1 60 4.8 40.6
05:20 1025 30.27 855 25.25 12.5 54.5 59 4.8 40.6
05:25 1025 30.27 855 25.25 12.8 55 58 4.7 40.5
05:30 1025 30.27 855 25.25 12.9 55.1 58 4.9 40.7
05:35 1025 30.27 855 25.25 12.8 55.1 58 4.7 40.5
05:40 1025 30.27 855 25.25 12.8 55 57 4.6 40.4
05:45 1025 30.27 855 25.25 12.9 55.1 57 4.7 40.4
05:50 1025 30.27 855 25.25 12.8 55.1 57 4.5 40.1
05:55 1025 30.27 855 25.25 12.9 55.3 56 4.5 40.1
06:00 1025 30.27 855 25.25 12.9 55.2 57 4.6 40.2
06:05 1025 30.27 855 25.25 12.8 55 57 4.5 40.1
06:10 1025 30.27 855 25.25 12.8 55 57 4.5 40.2
06:15 1025 30.27 855 25.25 12.8 55.1 56 4.4 40
06:20 1025 30.27 855 25.25 12.8 55.1 57 4.5 40
06:25 1025 30.27 855 25.25 12.8 55 57 4.4 40
06:30 1026 30.3 855 25.25 12.7 54.8 57 4.5 40
06:35 1026 30.3 855 25.25 12.5 54.5 58 4.4 39.9
06:40 1026 30.3 855 25.25 12.5 54.5 57 4.3 39.8
06:45 1026 30.3 855 25.25 12.5 54.4 58 4.5 40
06:50 1026 30.3 855 25.25 12.4 54.2 58 4.4 39.9
06:55 1026 30.3 855 25.25 12.2 54 58 4.4 39.8
07:00 1026 30.3 855 25.25 12.2 54 59 4.5 40
07:05 1026 30.3 855 25.25 12.2 53.9 59 4.5 40.1
07:10 1026 30.3 855 25.25 12.1 53.8 59 4.5 40.1
07:15 1026 30.3 855 25.25 12 53.6 60 4.5 40.1
07:20 1026 30.3 855 25.25 11.9 53.4 61 4.6 40.2
07:25 1026 30.3 855 25.25 11.9 53.5 60 4.5 40.2
07:30 1026 30.3 855 25.25 11.9 53.5 60 4.6 40.2
07:35 1026 30.3 855 25.25 11.9 53.4 60 4.5 40.1
07:40 1026 30.3 855 25.25 11.9 53.4 60 4.5 40.1
07:45 1026 30.3 855 25.25 12 53.5 60 4.5 40.2
07:50 1026 30.3 855 25.25 11.9 53.5 60 4.5 40.1
07:55 1026 30.3 855 25.25 12 53.6 60 4.6 40.2
08:00 1026 30.3 855 25.25 12 53.6 60 4.6 40.2
08:05 1026 30.3 855 25.25 11.9 53.5 61 4.6 40.3
08:10 1026 30.3 855 25.25 12 53.6 60 4.6 40.2
08:15 1026 30.3 855 25.25 12.1 53.8 60 4.6 40.3
08:20 1026 30.3 856 25.28 12.2 53.9 60 4.6 40.4
08:25 1026 30.3 856 25.28 12.2 54 60 4.7 40.5
08:30 1026 30.3 856 25.28 12.3 54.1 59 4.7 40.5
08:35 1026 30.3 856 25.28 12.3 54.1 59 4.7 40.4
08:40 1026 30.3 856 25.28 12.5 54.4 59 4.7 40.5
08:45 1026 30.3 856 25.28 12.4 54.3 60 4.9 40.7
08:50 1026 30.3 856 25.28 12.4 54.3 59 4.7 40.5
08:55 1026 30.3 856 25.28 12.6 54.6 59 4.8 40.6
09:00 1027 30.33 856 25.28 12.7 54.9 58 4.8 40.6
09:05 1027 30.33 856 25.28 12.8 55.1 58 5 40.9
09:10 1027 30.33 856 25.28 12.8 55.1 59 5.1 41.2
09:15 1026 30.3 856 25.28 12.8 55 59 5.1 41.2
09:20 1027 30.33 856 25.28 12.9 55.3 58 5 41
09:25 1026 30.3 856 25.28 13.1 55.6 58 5.2 41.3
09:30 1027 30.33 856 25.28 13.1 55.6 58 5.2 41.3
09:35 1027 30.33 856 25.28 13 55.5 59 5.3 41.5
09:40 1027 30.33 856 25.28 13 55.3 59 5.2 41.3
09:45 1027 30.33 856 25.28 12.9 55.1 60 5.3 41.5
09:50 1027 30.33 856 25.28 12.9 55.1 59 5.2 41.4
09:55 1027 30.33 856 25.28 12.9 55.2 60 5.3 41.5
10:00 1027 30.33 856 25.28 13.1 55.5 59 5.3 41.5
10:05 1027 30.33 856 25.28 13.2 55.7 58 5.2 41.4
10:10 1027 30.33 856 25.28 13.2 55.8 59 5.4 41.7
10:15 1027 30.33 856 25.28 13.3 55.9 58 5.4 41.7
10:20 1027 30.33 856 25.28 13.4 56.2 57 5.2 41.4
10:25 1027 30.33 856 25.28 13.4 56.2 58 5.4 41.8
10:30 1026 30.3 856 25.28 13.6 56.4 57 5.4 41.7
10:35 1026 30.3 856 25.28 13.8 56.8 57 5.5 41.8
10:40 1027 30.33 856 25.28 13.9 56.9 56 5.4 41.7
10:45 1026 30.3 856 25.28 14 57.2 56 5.4 41.7
10:50 1026 30.3 856 25.28 14.2 57.6 55 5.4 41.7
10:55 1026 30.3 856 25.28 14.3 57.7 55 5.5 41.8
11:00 1026 30.3 856 25.28 14.4 57.8 55 5.5 41.9
11:05 1026 30.3 856 25.28 14.4 57.8 54 5.4 41.7
11:10 1026 30.3 856 25.28 14.5 58 55 5.6 42.1
11:15 1026 30.3 856 25.28 15 59 53 5.7 42.2
11:20 1027 30.33 856 25.28 15 59 53 5.5 41.9
11:25 1026 30.3 856 25.28 14.9 58.8 54 5.7 42.3
11:30 1026 30.3 856 25.28 14.8 58.7 53 5.5 41.8
11:35 1026 30.3 856 25.28 15.3 59.5 52 5.5 41.9
11:40 1026 30.3 856 25.28 16.1 61 50 5.7 42.3
11:45 1026 30.3 856 25.28 16.1 60.9 50 5.7 42.2
11:50 1026 30.3 856 25.28 16.4 61.6 49 5.8 42.5
11:55 1026 30.3 856 25.28 16.7 62 48 5.8 42.4
12:00 1026 30.3 855 25.25 16.4 61.5 49 5.8 42.5
12:05 1026 30.3 855 25.25 16.7 62 47 5.5 41.9
12:10 1026 30.3 855 25.25 16.6 61.9 48 5.7 42.2
12:15 1026 30.3 855 25.25 17.1 62.7 47 5.8 42.5
12:20 1026 30.3 855 25.25 17.2 63 46 5.7 42.2
12:25 1026 30.3 855 25.25 16.8 62.3 47 5.7 42.3
12:30 1026 30.3 855 25.25 17.1 62.9 47 5.9 42.6
12:35 1026 30.3 855 25.25 17.3 63.1 46 5.8 42.4
12:40 1026 30.3 855 25.25 17.5 63.4 47 6.1 43
12:45 1026 30.3 855 25.25 17.8 64.1 48 6.7 44
12:50 1026 30.3 855 25.25 18 64.3 45 6 42.9
12:55 1026 30.3 855 25.25 18 64.4 45 6.1 42.9
13:00 1026 30.3 855 25.25 18 64.3 48 6.9 44.5
13:05 1026 30.3 855 25.25 18.1 64.5 46 6.3 43.3
13:10 1026 30.3 855 25.25 18.4 65.2 43 5.7 42.3
13:15 1026 30.3 855 25.25 18.4 65.2 42 5.6 42
13:20 1026 30.3 855 25.25 18.9 66 43 6.2 43.1
13:25 1026 30.3 855 25.25 19 66.2 42 5.8 42.5
13:30 1026 30.3 855 25.25 18.8 65.8 43 6.1 43
13:35 1026 30.3 855 25.25 18.7 65.6 43 6 42.8
13:40 1026 30.3 855 25.25 19.5 67.1 40 5.7 42.3
13:45 1026 30.3 855 25.25 19.8 67.6 40 6 42.9
13:50 1026 30.3 855 25.25 19.4 66.9 41 5.8 42.5
13:55 1026 30.3 855 25.25 19.3 66.7 42 6.3 43.3
14:00 1025 30.27 855 25.25 19.6 67.3 40 5.8 42.5
14:05 1025 30.27 855 25.25 19.5 67.2 40 5.7 42.3
14:10 1025 30.27 855 25.25 19.4 66.8 41 6 42.8
14:15 1025 30.27 854 25.22 19.4 66.8 41 6 42.8
14:20 1025 30.27 854 25.22 19.3 66.7 41 5.9 42.6
14:25 1025 30.27 854 25.22 19.3 66.7 42 6.3 43.3
14:30 1025 30.27 854 25.22 19.3 66.7 42 6.2 43.1
14:35 1025 30.27 854 25.22 19.7 67.4 41 6.1 43
14:40 1025 30.27 854 25.22 19.7 67.4 41 6.1 43
14:45 1025 30.27 854 25.22 19.7 67.5 40 5.8 42.4
14:50 1025 30.27 854 25.22 19.8 67.6 40 5.8 42.4
14:55 1025 30.27 854 25.22 19.8 67.6 40 5.9 42.5
15:00 1025 30.27 854 25.22 19.4 67 40 5.8 42.4
15:05 1025 30.27 854 25.22 19.7 67.5 40 5.8 42.5
15:10 1025 30.27 854 25.22 19.7 67.4 41 6.1 42.9
15:15 1025 30.27 854 25.22 19.6 67.2 40 5.9 42.6
15:20 1025 30.27 854 25.22 19.6 67.3 41 6 42.9
15:25 1025 30.27 854 25.22 19.7 67.5 40 6 42.9
15:30 1025 30.27 854 25.22 19.6 67.3 41 6.1 42.9
15:35 1025 30.27 854 25.22 19.7 67.5 40 5.9 42.6
15:40 1025 30.27 854 25.22 19.6 67.4 40 5.9 42.6
15:45 1025 30.27 854 25.22 19.8 67.6 39 5.7 42.3
15:50 1025 30.27 854 25.22 19.8 67.6 40 5.9 42.6
15:55 1024 30.24 854 25.22 19.7 67.5 40 6 42.8
16:00 1024 30.24 854 25.22 19.7 67.5 40 6.1 42.9
16:05 1024 30.24 854 25.22 19.7 67.5 40 5.9 42.6
16:10 1024 30.24 854 25.22 19.6 67.4 40 5.7 42.3
16:15 1024 30.24 854 25.22 19.5 67.2 40 5.5 42
16:20 1024 30.24 854 25.22 19.6 67.3 39 5.6 42
16:25 1025 30.27 854 25.22 19.6 67.2 40 5.7 42.3
16:30 1025 30.27 854 25.22 19.5 67.1 40 5.6 42
16:35 1025 30.27 854 25.22 19.7 67.5 39 5.5 42
16:40 1024 30.24 854 25.22 19.8 67.6 39 5.4 41.8
16:45 1025 30.27 854 25.22 19.7 67.5 39 5.7 42.2
16:50 1025 30.27 854 25.22 19.6 67.3 40 5.7 42.2
16:55 1025 30.27 854 25.22 19.6 67.3 40 5.8 42.4
17:00 1025 30.27 854 25.22 19.5 67.1 40 5.6 42
17:05 1025 30.27 854 25.22 19.5 67.1 40 5.5 42
17:10 1025 30.27 854 25.22 19.6 67.2 40 5.6 42.1
17:15 1025 30.27 854 25.22 19.5 67 39 5.4 41.7
17:20 1025 30.27 854 25.22 19.5 67 40 5.7 42.2
17:25 1025 30.27 854 25.22 19.4 66.9 39 5.4 41.6
17:30 1025 30.27 854 25.22 19.3 66.7 40 5.4 41.7
17:35 1025 30.27 854 25.22 19.3 66.7 40 5.4 41.8
17:40 1025 30.27 854 25.22 19.2 66.5 41 5.7 42.2
17:45 1025 30.27 854 25.22 19.1 66.4 40 5.4 41.7
17:50 1025 30.27 854 25.22 19 66.1 41 5.5 41.8
17:55 1025 30.27 854 25.22 18.9 66 41 5.4 41.8
18:00 1025 30.27 854 25.22 18.8 65.8 41 5.4 41.8
18:05 1025 30.27 854 25.22 18.7 65.7 41 5.5 41.9
18:10 1025 30.27 854 25.22 18.6 65.5 41 5.4 41.7
18:15 1025 30.27 854 25.22 18.5 65.3 42 5.4 41.7
18:20 1025 30.27 854 25.22 18.4 65.1 42 5.4 41.7
18:25 1025 30.27 854 25.22 18.3 64.9 42 5.3 41.6
18:30 1025 30.27 854 25.22 18.1 64.6 43 5.4 41.7
18:35 1025 30.27 854 25.22 17.9 64.2 43 5.2 41.4
18:40 1025 30.27 854 25.22 17.8 64 43 5.3 41.5
18:45 1024 30.24 854 25.22 17.6 63.7 44 5.3 41.5
18:50 1025 30.27 854 25.22 17.4 63.4 44 5.2 41.4
18:55 1025 30.27 854 25.22 17.3 63.1 44 5.2 41.3
19:00 1025 30.27 854 25.22 17.2 63 45 5.2 41.4
19:05 1025 30.27 854 25.22 17.1 62.7 45 5.1 41.1
19:10 1025 30.27 854 25.22 17 62.6 45 5.1 41.2
19:15 1025 30.27 854 25.22 16.8 62.3 46 5.1 41.2
19:20 1025 30.27 854 25.22 16.7 62.1 46 5.2 41.4
19:25 1025 30.27 854 25.22 16.6 61.9 47 5.2 41.4
19:30 1025 30.27 854 25.22 16.5 61.7 47 5.1 41.3
19:35 1025 30.27 854 25.22 16.3 61.4 48 5.3 41.6
19:40 1025 30.27 854 25.22 16.2 61.1 48 5.3 41.5
19:45 1025 30.27 854 25.22 16.1 60.9 48 5.3 41.5
19:50 1025 30.27 854 25.22 16 60.7 49 5.2 41.4
19:55 1025 30.27 854 25.22 15.9 60.7 49 5.3 41.5
20:00 1025 30.27 854 25.22 15.8 60.5 49 5.3 41.5
20:05 1025 30.27 854 25.22 15.8 60.5 49 5.1 41.1
20:10 1025 30.27 854 25.22 15.8 60.4 49 5.1 41.1
20:15 1025 30.27 854 25.22 15.8 60.4 49 5.1 41.2
20:20 1025 30.27 854 25.22 15.7 60.3 49 5.1 41.3
20:25 1025 30.27 854 25.22 15.7 60.3 49 5.2 41.4
20:30 1025 30.27 854 25.22 15.6 60.1 50 5.3 41.6
20:35 1025 30.27 854 25.22 15.6 60.1 50 5.4 41.7
20:40 1025 30.27 854 25.22 15.5 59.9 51 5.5 42
20:45 1025 30.27 854 25.22 15.5 59.8 51 5.6 42
20:50 1025 30.27 854 25.22 15.5 59.9 52 5.7 42.2
20:55 1025 30.27 854 25.22 15.4 59.7 52 5.7 42.3
21:00 1025 30.27 854 25.22 15.3 59.6 53 5.8 42.5
21:05 1025 30.27 854 25.22 15.2 59.3 53 5.8 42.4
21:10 1025 30.27 854 25.22 15.2 59.3 53 5.8 42.5
21:15 1025 30.27 854 25.22 15.1 59.2 54 6 42.7
21:20 1025 30.27 854 25.22 15 59 54 5.9 42.5
21:25 1025 30.27 854 25.22 15 59 54 5.9 42.7
21:30 1025 30.27 854 25.22 15 58.9 55 6 42.8
21:35 1025 30.27 854 25.22 14.9 58.7 55 5.9 42.6
21:40 1025 30.27 854 25.22 14.9 58.8 55 5.9 42.7
21:45 1025 30.27 854 25.22 14.9 58.7 55 5.9 42.6
21:50 1025 30.27 854 25.22 14.8 58.6 55 5.9 42.6
21:55 1025 30.27 854 25.22 14.8 58.6 55 5.9 42.6
22:00 1025 30.27 854 25.22 14.7 58.5 55 5.9 42.6
22:05 1025 30.27 854 25.22 14.7 58.4 56 5.9 42.7
22:10 1025 30.27 854 25.22 14.6 58.2 56 5.9 42.6
22:15 1025 30.27 854 25.22 14.6 58.2 56 5.9 42.6
22:20 1025 30.27 854 25.22 14.6 58.2 56 6 42.7
22:25 1024 30.24 854 25.22 14.5 58.1 56 6 42.8
22:30 1024 30.24 854 25.22 14.5 58 56 5.9 42.6
22:35 1024 30.24 854 25.22 14.4 58 56 6 42.7
22:40 1024 30.24 854 25.22 14.4 57.9 57 5.9 42.7
22:45 1024 30.24 854 25.22 14.4 57.8 57 5.9 42.7
22:50 1024 30.24 854 25.22 14.3 57.7 57 5.9 42.7
22:55 1024 30.24 853 25.19 14.2 57.5 57 6 42.7
23:00 1024 30.24 853 25.19 14.1 57.5 57 5.9 42.7
23:05 1024 30.24 853 25.19 14.2 57.5 57 5.9 42.7
23:10 1024 30.24 853 25.19 14.1 57.4 58 6 42.8
23:15 1024 30.24 853 25.19 14.1 57.3 58 6 42.8
23:20 1024 30.24 853 25.19 14.1 57.3 58 5.9 42.7
23:25 1024 30.24 853 25.19 14 57.3 58 6 42.7
23:30 1024 30.24 853 25.19 14 57.2 58 6 42.8
23:35 1024 30.24 853 25.19 13.9 57 59 6 42.7
23:40 1024 30.24 853 25.19 13.9 56.9 59 6 42.9
23:45 1024 30.24 853 25.19 13.8 56.8 59 6 42.7
23:50 1024 30.24 853 25.19 13.7 56.7 59 6 42.8
23:55 1024 30.24 853 25.19 13.7 56.6 60 6 42.8
24:00 1024 30.24 853 25.19 13.5 56.4 60 6 42.7